sensor_id;sensor_type;location;lat;lon;timestamp;P1;durP1;ratioP1;P2;durP2;ratioP2
16119;SDS011;12670;53.502;10.252;2023-03-15T00:00:52;3.30;;;1.33;;
16119;SDS011;12670;53.502;10.252;2023-03-15T00:03:55;6.77;;;1.47;;
16119;SDS011;12670;53.502;10.252;2023-03-15T00:06:58;8.57;;;1.77;;
16119;SDS011;12670;53.502;10.252;2023-03-15T00:10:01;4.57;;;1.40;;
16119;SDS011;12670;53.502;10.252;2023-03-15T00:13:04;8.53;;;1.60;;
16119;SDS011;12670;53.502;10.252;2023-03-15T00:16:08;4.53;;;1.50;;
16119;SDS011;12670;53.502;10.252;2023-03-15T00:19:11;6.67;;;1.80;;
16119;SDS011;12670;53.502;10.252;2023-03-15T00:22:14;5.77;;;1.50;;
16119;SDS011;12670;53.502;10.252;2023-03-15T00:25:16;7.67;;;1.50;;
16119;SDS011;12670;53.502;10.252;2023-03-15T00:28:19;6.50;;;1.50;;
16119;SDS011;12670;53.502;10.252;2023-03-15T00:31:24;3.73;;;1.40;;
16119;SDS011;12670;53.502;10.252;2023-03-15T00:34:27;9.93;;;1.73;;
16119;SDS011;12670;53.502;10.252;2023-03-15T00:37:29;6.07;;;1.13;;
16119;SDS011;12670;53.502;10.252;2023-03-15T00:40:32;3.67;;;1.50;;
16119;SDS011;12670;53.502;10.252;2023-03-15T00:43:35;6.60;;;1.33;;
16119;SDS011;12670;53.502;10.252;2023-03-15T00:46:39;7.47;;;1.40;;
16119;SDS011;12670;53.502;10.252;2023-03-15T00:49:42;6.73;;;1.57;;
16119;SDS011;12670;53.502;10.252;2023-03-15T00:52:45;6.37;;;1.30;;
16119;SDS011;12670;53.502;10.252;2023-03-15T00:55:48;6.57;;;1.40;;
16119;SDS011;12670;53.502;10.252;2023-03-15T00:58:51;9.67;;;1.93;;
16119;SDS011;12670;53.502;10.252;2023-03-15T01:01:55;8.73;;;1.60;;
16119;SDS011;12670;53.502;10.252;2023-03-15T01:04:58;4.60;;;1.60;;
16119;SDS011;12670;53.502;10.252;2023-03-15T01:08:01;3.23;;;1.30;;
16119;SDS011;12670;53.502;10.252;2023-03-15T01:11:05;11.13;;;1.50;;
16119;SDS011;12670;53.502;10.252;2023-03-15T01:14:09;7.97;;;1.50;;
16119;SDS011;12670;53.502;10.252;2023-03-15T01:17:13;7.00;;;1.70;;
16119;SDS011;12670;53.502;10.252;2023-03-15T01:20:15;6.80;;;1.90;;
16119;SDS011;12670;53.502;10.252;2023-03-15T01:23:18;8.07;;;1.70;;
16119;SDS011;12670;53.502;10.252;2023-03-15T01:26:21;11.73;;;2.17;;
16119;SDS011;12670;53.502;10.252;2023-03-15T01:29:24;11.00;;;2.10;;
16119;SDS011;12670;53.502;10.252;2023-03-15T01:32:28;11.00;;;1.80;;
16119;SDS011;12670;53.502;10.252;2023-03-15T01:35:31;11.67;;;2.07;;
16119;SDS011;12670;53.502;10.252;2023-03-15T01:38:34;11.43;;;1.90;;
16119;SDS011;12670;53.502;10.252;2023-03-15T01:41:37;7.07;;;1.80;;
16119;SDS011;12670;53.502;10.252;2023-03-15T01:44:52;5.43;;;1.63;;
16119;SDS011;12670;53.502;10.252;2023-03-15T01:47:57;6.63;;;1.97;;
16119;SDS011;12670;53.502;10.252;2023-03-15T01:51:01;10.77;;;2.40;;
16119;SDS011;12670;53.502;10.252;2023-03-15T01:54:09;5.30;;;1.93;;
16119;SDS011;12670;53.502;10.252;2023-03-15T01:57:17;6.13;;;1.90;;
16119;SDS011;12670;53.502;10.252;2023-03-15T02:00:24;4.73;;;1.90;;
16119;SDS011;12670;53.502;10.252;2023-03-15T02:03:29;6.97;;;2.10;;
16119;SDS011;12670;53.502;10.252;2023-03-15T02:06:36;4.57;;;2.07;;
16119;SDS011;12670;53.502;10.252;2023-03-15T02:09:41;8.37;;;2.03;;
16119;SDS011;12670;53.502;10.252;2023-03-15T02:12:49;5.20;;;2.07;;
16119;SDS011;12670;53.502;10.252;2023-03-15T02:15:53;7.63;;;2.20;;
16119;SDS011;12670;53.502;10.252;2023-03-15T02:18:57;4.03;;;1.83;;
16119;SDS011;12670;53.502;10.252;2023-03-15T02:22:03;4.87;;;1.93;;
16119;SDS011;12670;53.502;10.252;2023-03-15T02:25:15;4.90;;;1.80;;
16119;SDS011;12670;53.502;10.252;2023-03-15T02:28:27;7.83;;;1.80;;
16119;SDS011;12670;53.502;10.252;2023-03-15T02:31:32;3.70;;;1.80;;
16119;SDS011;12670;53.502;10.252;2023-03-15T02:34:38;8.40;;;1.80;;
16119;SDS011;12670;53.502;10.252;2023-03-15T02:37:40;6.63;;;2.00;;
16119;SDS011;12670;53.502;10.252;2023-03-15T02:40:46;5.50;;;1.83;;
16119;SDS011;12670;53.502;10.252;2023-03-15T02:43:50;8.40;;;2.23;;
16119;SDS011;12670;53.502;10.252;2023-03-15T02:46:58;5.20;;;2.00;;
16119;SDS011;12670;53.502;10.252;2023-03-15T02:50:04;6.53;;;2.10;;
16119;SDS011;12670;53.502;10.252;2023-03-15T02:53:09;6.30;;;2.20;;
16119;SDS011;12670;53.502;10.252;2023-03-15T02:56:12;4.20;;;1.80;;
16119;SDS011;12670;53.502;10.252;2023-03-15T02:59:16;4.70;;;2.10;;
16119;SDS011;12670;53.502;10.252;2023-03-15T03:02:19;5.13;;;2.03;;
16119;SDS011;12670;53.502;10.252;2023-03-15T03:05:24;6.43;;;2.00;;
16119;SDS011;12670;53.502;10.252;2023-03-15T03:08:26;5.60;;;1.80;;
16119;SDS011;12670;53.502;10.252;2023-03-15T03:11:29;6.03;;;2.37;;
16119;SDS011;12670;53.502;10.252;2023-03-15T03:14:33;3.10;;;1.70;;
16119;SDS011;12670;53.502;10.252;2023-03-15T03:17:36;5.13;;;1.90;;
16119;SDS011;12670;53.502;10.252;2023-03-15T03:20:39;6.03;;;1.70;;
16119;SDS011;12670;53.502;10.252;2023-03-15T03:23:41;5.83;;;2.40;;
16119;SDS011;12670;53.502;10.252;2023-03-15T03:26:46;3.50;;;1.97;;
16119;SDS011;12670;53.502;10.252;2023-03-15T03:29:50;6.63;;;2.17;;
16119;SDS011;12670;53.502;10.252;2023-03-15T03:32:53;5.00;;;1.93;;
16119;SDS011;12670;53.502;10.252;2023-03-15T03:35:59;3.63;;;2.17;;
16119;SDS011;12670;53.502;10.252;2023-03-15T03:39:04;5.00;;;2.03;;
16119;SDS011;12670;53.502;10.252;2023-03-15T03:42:07;9.67;;;2.30;;
16119;SDS011;12670;53.502;10.252;2023-03-15T03:45:11;4.97;;;2.00;;
16119;SDS011;12670;53.502;10.252;2023-03-15T03:48:14;4.30;;;1.90;;
16119;SDS011;12670;53.502;10.252;2023-03-15T03:51:16;4.93;;;2.00;;
16119;SDS011;12670;53.502;10.252;2023-03-15T03:54:19;5.57;;;2.07;;
16119;SDS011;12670;53.502;10.252;2023-03-15T03:57:22;3.67;;;2.33;;
16119;SDS011;12670;53.502;10.252;2023-03-15T04:00:26;5.73;;;2.37;;
16119;SDS011;12670;53.502;10.252;2023-03-15T04:03:28;7.53;;;2.83;;
16119;SDS011;12670;53.502;10.252;2023-03-15T04:06:31;7.50;;;2.30;;
16119;SDS011;12670;53.502;10.252;2023-03-15T04:09:34;4.07;;;2.40;;
16119;SDS011;12670;53.502;10.252;2023-03-15T04:12:37;5.43;;;2.20;;
16119;SDS011;12670;53.502;10.252;2023-03-15T04:15:42;6.17;;;2.60;;
16119;SDS011;12670;53.502;10.252;2023-03-15T04:18:44;4.37;;;2.17;;
16119;SDS011;12670;53.502;10.252;2023-03-15T04:21:47;8.27;;;2.70;;
16119;SDS011;12670;53.502;10.252;2023-03-15T04:24:52;7.63;;;3.10;;
16119;SDS011;12670;53.502;10.252;2023-03-15T04:27:55;5.13;;;2.70;;
16119;SDS011;12670;53.502;10.252;2023-03-15T04:31:01;7.93;;;3.23;;
16119;SDS011;12670;53.502;10.252;2023-03-15T04:34:04;4.37;;;2.80;;
16119;SDS011;12670;53.502;10.252;2023-03-15T04:37:07;3.47;;;2.47;;
16119;SDS011;12670;53.502;10.252;2023-03-15T04:40:11;3.37;;;2.37;;
16119;SDS011;12670;53.502;10.252;2023-03-15T04:43:14;3.57;;;2.43;;
16119;SDS011;12670;53.502;10.252;2023-03-15T04:46:18;5.97;;;2.70;;
16119;SDS011;12670;53.502;10.252;2023-03-15T04:49:23;5.90;;;3.00;;
16119;SDS011;12670;53.502;10.252;2023-03-15T04:52:26;6.13;;;3.93;;
16119;SDS011;12670;53.502;10.252;2023-03-15T04:55:29;5.27;;;3.80;;
16119;SDS011;12670;53.502;10.252;2023-03-15T04:58:31;5.73;;;3.60;;
16119;SDS011;12670;53.502;10.252;2023-03-15T05:01:36;6.20;;;4.23;;
16119;SDS011;12670;53.502;10.252;2023-03-15T05:04:39;6.60;;;4.47;;
16119;SDS011;12670;53.502;10.252;2023-03-15T05:07:41;7.80;;;4.47;;
16119;SDS011;12670;53.502;10.252;2023-03-15T05:10:44;10.80;;;5.37;;
16119;SDS011;12670;53.502;10.252;2023-03-15T05:13:46;9.07;;;5.07;;
16119;SDS011;12670;53.502;10.252;2023-03-15T05:16:50;9.57;;;5.50;;
16119;SDS011;12670;53.502;10.252;2023-03-15T05:19:56;11.67;;;6.50;;
16119;SDS011;12670;53.502;10.252;2023-03-15T05:22:58;11.17;;;5.93;;
16119;SDS011;12670;53.502;10.252;2023-03-15T05:26:02;11.30;;;5.30;;
16119;SDS011;12670;53.502;10.252;2023-03-15T05:29:05;11.93;;;5.70;;
16119;SDS011;12670;53.502;10.252;2023-03-15T05:32:09;9.23;;;5.73;;
16119;SDS011;12670;53.502;10.252;2023-03-15T05:35:12;18.53;;;7.40;;
16119;SDS011;12670;53.502;10.252;2023-03-15T05:38:15;11.27;;;6.50;;
16119;SDS011;12670;53.502;10.252;2023-03-15T05:41:17;11.53;;;5.83;;
16119;SDS011;12670;53.502;10.252;2023-03-15T05:44:20;16.33;;;6.60;;
16119;SDS011;12670;53.502;10.252;2023-03-15T05:47:25;11.77;;;6.10;;
16119;SDS011;12670;53.502;10.252;2023-03-15T05:50:28;11.47;;;5.73;;
16119;SDS011;12670;53.502;10.252;2023-03-15T05:53:31;11.87;;;6.10;;
16119;SDS011;12670;53.502;10.252;2023-03-15T05:56:33;14.70;;;6.93;;
16119;SDS011;12670;53.502;10.252;2023-03-15T05:59:36;12.60;;;6.13;;
16119;SDS011;12670;53.502;10.252;2023-03-15T06:02:40;11.93;;;6.60;;
16119;SDS011;12670;53.502;10.252;2023-03-15T06:05:43;13.17;;;5.87;;
16119;SDS011;12670;53.502;10.252;2023-03-15T06:08:46;12.33;;;5.83;;
16119;SDS011;12670;53.502;10.252;2023-03-15T06:11:49;13.03;;;5.77;;
16119;SDS011;12670;53.502;10.252;2023-03-15T06:14:52;18.17;;;7.17;;
16119;SDS011;12670;53.502;10.252;2023-03-15T06:17:56;12.70;;;6.57;;
16119;SDS011;12670;53.502;10.252;2023-03-15T06:20:59;11.00;;;6.33;;
16119;SDS011;12670;53.502;10.252;2023-03-15T06:24:02;12.63;;;6.70;;
16119;SDS011;12670;53.502;10.252;2023-03-15T06:27:06;16.23;;;6.87;;
16119;SDS011;12670;53.502;10.252;2023-03-15T06:30:09;12.17;;;6.50;;
16119;SDS011;12670;53.502;10.252;2023-03-15T06:33:16;13.97;;;6.13;;
16119;SDS011;12670;53.502;10.252;2023-03-15T06:36:19;14.07;;;6.60;;
16119;SDS011;12670;53.502;10.252;2023-03-15T06:39:22;11.17;;;6.00;;
16119;SDS011;12670;53.502;10.252;2023-03-15T06:42:25;16.07;;;7.07;;
16119;SDS011;12670;53.502;10.252;2023-03-15T06:45:27;17.27;;;6.67;;
16119;SDS011;12670;53.502;10.252;2023-03-15T06:48:33;16.83;;;7.80;;
16119;SDS011;12670;53.502;10.252;2023-03-15T06:51:36;17.20;;;6.90;;
16119;SDS011;12670;53.502;10.252;2023-03-15T06:54:39;13.40;;;7.37;;
16119;SDS011;12670;53.502;10.252;2023-03-15T06:57:41;13.13;;;7.00;;
16119;SDS011;12670;53.502;10.252;2023-03-15T07:00:45;14.30;;;6.77;;
16119;SDS011;12670;53.502;10.252;2023-03-15T07:03:50;16.40;;;7.13;;
16119;SDS011;12670;53.502;10.252;2023-03-15T07:06:52;15.33;;;7.13;;
16119;SDS011;12670;53.502;10.252;2023-03-15T07:09:55;17.63;;;6.73;;
16119;SDS011;12670;53.502;10.252;2023-03-15T07:12:58;13.83;;;7.00;;
16119;SDS011;12670;53.502;10.252;2023-03-15T07:16:01;14.70;;;6.60;;
16119;SDS011;12670;53.502;10.252;2023-03-15T07:19:05;15.53;;;6.20;;
16119;SDS011;12670;53.502;10.252;2023-03-15T07:22:07;9.07;;;4.70;;
16119;SDS011;12670;53.502;10.252;2023-03-15T07:25:10;13.40;;;5.00;;
16119;SDS011;12670;53.502;10.252;2023-03-15T07:28:13;12.03;;;5.33;;
16119;SDS011;12670;53.502;10.252;2023-03-15T07:31:16;10.70;;;4.67;;
16119;SDS011;12670;53.502;10.252;2023-03-15T07:34:20;9.10;;;4.17;;
16119;SDS011;12670;53.502;10.252;2023-03-15T07:37:22;10.40;;;4.17;;
16119;SDS011;12670;53.502;10.252;2023-03-15T07:40:25;7.83;;;3.63;;
16119;SDS011;12670;53.502;10.252;2023-03-15T07:43:28;10.00;;;4.20;;
16119;SDS011;12670;53.502;10.252;2023-03-15T07:46:31;6.93;;;3.70;;
16119;SDS011;12670;53.502;10.252;2023-03-15T07:49:35;8.77;;;3.47;;
16119;SDS011;12670;53.502;10.252;2023-03-15T07:52:38;16.10;;;4.07;;
16119;SDS011;12670;53.502;10.252;2023-03-15T07:55:40;7.90;;;3.43;;
16119;SDS011;12670;53.502;10.252;2023-03-15T07:58:43;7.73;;;3.53;;
16119;SDS011;12670;53.502;10.252;2023-03-15T08:01:45;8.93;;;2.73;;
16119;SDS011;12670;53.502;10.252;2023-03-15T08:04:49;5.87;;;2.50;;
16119;SDS011;12670;53.502;10.252;2023-03-15T08:07:53;4.03;;;2.20;;
16119;SDS011;12670;53.502;10.252;2023-03-15T08:10:56;4.97;;;2.30;;
16119;SDS011;12670;53.502;10.252;2023-03-15T08:14:00;8.63;;;2.90;;
16119;SDS011;12670;53.502;10.252;2023-03-15T08:17:03;6.87;;;2.27;;
16119;SDS011;12670;53.502;10.252;2023-03-15T08:20:07;6.20;;;2.23;;
16119;SDS011;12670;53.502;10.252;2023-03-15T08:23:11;7.90;;;2.33;;
16119;SDS011;12670;53.502;10.252;2023-03-15T08:26:16;6.33;;;2.60;;
16119;SDS011;12670;53.502;10.252;2023-03-15T08:29:19;8.73;;;3.13;;
16119;SDS011;12670;53.502;10.252;2023-03-15T08:32:21;8.63;;;3.60;;
16119;SDS011;12670;53.502;10.252;2023-03-15T08:35:25;8.20;;;2.80;;
16119;SDS011;12670;53.502;10.252;2023-03-15T08:38:28;5.93;;;2.60;;
16119;SDS011;12670;53.502;10.252;2023-03-15T08:41:31;5.23;;;2.80;;
16119;SDS011;12670;53.502;10.252;2023-03-15T08:44:34;3.23;;;2.30;;
16119;SDS011;12670;53.502;10.252;2023-03-15T08:47:37;5.97;;;2.83;;
16119;SDS011;12670;53.502;10.252;2023-03-15T08:50:41;4.53;;;2.30;;
16119;SDS011;12670;53.502;10.252;2023-03-15T08:53:44;4.07;;;1.93;;
16119;SDS011;12670;53.502;10.252;2023-03-15T08:56:46;5.87;;;1.80;;
16119;SDS011;12670;53.502;10.252;2023-03-15T08:59:50;6.53;;;2.10;;
16119;SDS011;12670;53.502;10.252;2023-03-15T09:02:53;3.70;;;1.63;;
16119;SDS011;12670;53.502;10.252;2023-03-15T09:05:57;4.47;;;1.80;;
16119;SDS011;12670;53.502;10.252;2023-03-15T09:09:00;5.23;;;1.60;;
16119;SDS011;12670;53.502;10.252;2023-03-15T09:12:03;9.30;;;1.73;;
16119;SDS011;12670;53.502;10.252;2023-03-15T09:15:07;3.70;;;1.73;;
16119;SDS011;12670;53.502;10.252;2023-03-15T09:18:11;7.27;;;2.53;;
16119;SDS011;12670;53.502;10.252;2023-03-15T09:21:15;5.00;;;1.80;;
16119;SDS011;12670;53.502;10.252;2023-03-15T09:24:17;8.53;;;2.13;;
16119;SDS011;12670;53.502;10.252;2023-03-15T09:27:20;3.90;;;1.90;;
16119;SDS011;12670;53.502;10.252;2023-03-15T09:30:22;9.87;;;2.60;;
16119;SDS011;12670;53.502;10.252;2023-03-15T09:33:25;6.17;;;1.50;;
16119;SDS011;12670;53.502;10.252;2023-03-15T09:36:29;7.13;;;2.10;;
16119;SDS011;12670;53.502;10.252;2023-03-15T09:39:32;6.60;;;1.40;;
16119;SDS011;12670;53.502;10.252;2023-03-15T09:42:37;6.17;;;1.53;;
16119;SDS011;12670;53.502;10.252;2023-03-15T09:45:54;7.83;;;1.40;;
16119;SDS011;12670;53.502;10.252;2023-03-15T09:49:07;2.27;;;1.00;;
16119;SDS011;12670;53.502;10.252;2023-03-15T09:52:21;2.73;;;1.20;;
16119;SDS011;12670;53.502;10.252;2023-03-15T09:55:29;4.60;;;1.20;;
16119;SDS011;12670;53.502;10.252;2023-03-15T09:58:31;3.73;;;1.30;;
16119;SDS011;12670;53.502;10.252;2023-03-15T10:01:36;2.30;;;1.30;;
16119;SDS011;12670;53.502;10.252;2023-03-15T10:04:41;3.30;;;1.50;;
16119;SDS011;12670;53.502;10.252;2023-03-15T10:07:48;3.00;;;1.33;;
16119;SDS011;12670;53.502;10.252;2023-03-15T10:10:51;6.83;;;1.40;;
16119;SDS011;12670;53.502;10.252;2023-03-15T10:14:00;5.53;;;1.50;;
16119;SDS011;12670;53.502;10.252;2023-03-15T10:17:12;4.77;;;1.10;;
16119;SDS011;12670;53.502;10.252;2023-03-15T10:20:16;2.63;;;1.10;;
16119;SDS011;12670;53.502;10.252;2023-03-15T10:23:22;2.53;;;1.07;;
16119;SDS011;12670;53.502;10.252;2023-03-15T10:26:30;9.17;;;1.90;;
16119;SDS011;12670;53.502;10.252;2023-03-15T10:29:37;5.80;;;1.37;;
16119;SDS011;12670;53.502;10.252;2023-03-15T10:32:41;5.83;;;1.50;;
16119;SDS011;12670;53.502;10.252;2023-03-15T10:35:45;7.97;;;1.60;;
16119;SDS011;12670;53.502;10.252;2023-03-15T10:38:51;9.50;;;1.63;;
16119;SDS011;12670;53.502;10.252;2023-03-15T10:41:54;7.00;;;1.60;;
16119;SDS011;12670;53.502;10.252;2023-03-15T10:44:57;11.43;;;2.50;;
16119;SDS011;12670;53.502;10.252;2023-03-15T10:48:00;6.47;;;1.50;;
16119;SDS011;12670;53.502;10.252;2023-03-15T10:51:03;8.77;;;1.90;;
16119;SDS011;12670;53.502;10.252;2023-03-15T10:54:14;13.73;;;2.33;;
16119;SDS011;12670;53.502;10.252;2023-03-15T10:57:18;10.50;;;1.97;;
16119;SDS011;12670;53.502;10.252;2023-03-15T11:00:27;10.53;;;2.07;;
16119;SDS011;12670;53.502;10.252;2023-03-15T11:03:32;10.83;;;2.57;;
16119;SDS011;12670;53.502;10.252;2023-03-15T11:06:39;11.33;;;1.67;;
16119;SDS011;12670;53.502;10.252;2023-03-15T11:09:51;7.07;;;1.77;;
16119;SDS011;12670;53.502;10.252;2023-03-15T11:13:11;10.00;;;1.70;;
16119;SDS011;12670;53.502;10.252;2023-03-15T11:16:18;3.97;;;1.43;;
16119;SDS011;12670;53.502;10.252;2023-03-15T11:19:22;10.57;;;1.97;;
16119;SDS011;12670;53.502;10.252;2023-03-15T11:22:28;4.83;;;1.47;;
16119;SDS011;12670;53.502;10.252;2023-03-15T11:25:32;7.83;;;1.40;;
16119;SDS011;12670;53.502;10.252;2023-03-15T11:28:35;4.87;;;1.70;;
16119;SDS011;12670;53.502;10.252;2023-03-15T11:31:41;6.13;;;1.43;;
16119;SDS011;12670;53.502;10.252;2023-03-15T11:34:46;5.53;;;1.30;;
16119;SDS011;12670;53.502;10.252;2023-03-15T11:37:55;3.17;;;1.10;;
16119;SDS011;12670;53.502;10.252;2023-03-15T11:41:19;3.23;;;1.30;;
16119;SDS011;12670;53.502;10.252;2023-03-15T11:44:32;4.50;;;1.20;;
16119;SDS011;12670;53.502;10.252;2023-03-15T11:47:41;7.23;;;1.23;;
16119;SDS011;12670;53.502;10.252;2023-03-15T11:50:50;6.30;;;1.27;;
16119;SDS011;12670;53.502;10.252;2023-03-15T11:53:56;3.43;;;1.30;;
16119;SDS011;12670;53.502;10.252;2023-03-15T11:57:33;5.30;;;1.20;;
16119;SDS011;12670;53.502;10.252;2023-03-15T12:00:48;5.60;;;1.70;;
16119;SDS011;12670;53.502;10.252;2023-03-15T12:03:54;7.90;;;1.53;;
16119;SDS011;12670;53.502;10.252;2023-03-15T12:07:36;4.30;;;1.30;;
16119;SDS011;12670;53.502;10.252;2023-03-15T12:10:58;5.03;;;1.20;;
16119;SDS011;12670;53.502;10.252;2023-03-15T12:14:05;3.97;;;1.20;;
16119;SDS011;12670;53.502;10.252;2023-03-15T12:17:37;7.10;;;1.27;;
16119;SDS011;12670;53.502;10.252;2023-03-15T12:20:48;4.30;;;1.10;;
16119;SDS011;12670;53.502;10.252;2023-03-15T12:23:57;4.97;;;1.30;;
16119;SDS011;12670;53.502;10.252;2023-03-15T12:27:04;5.97;;;1.40;;
16119;SDS011;12670;53.502;10.252;2023-03-15T12:30:19;6.23;;;1.30;;
16119;SDS011;12670;53.502;10.252;2023-03-15T12:33:24;7.63;;;1.20;;
16119;SDS011;12670;53.502;10.252;2023-03-15T12:36:30;4.97;;;1.70;;
16119;SDS011;12670;53.502;10.252;2023-03-15T12:39:40;3.27;;;1.20;;
16119;SDS011;12670;53.502;10.252;2023-03-15T12:49:53;10.53;;;1.57;;
16119;SDS011;12670;53.502;10.252;2023-03-15T12:52:55;6.77;;;1.60;;
16119;SDS011;12670;53.502;10.252;2023-03-15T12:59:44;7.50;;;1.47;;
16119;SDS011;12670;53.502;10.252;2023-03-15T13:02:52;7.20;;;1.50;;
16119;SDS011;12670;53.502;10.252;2023-03-15T13:06:08;8.53;;;1.63;;
16119;SDS011;12670;53.502;10.252;2023-03-15T13:09:19;4.57;;;1.33;;
16119;SDS011;12670;53.502;10.252;2023-03-15T13:12:34;9.70;;;1.93;;
16119;SDS011;12670;53.502;10.252;2023-03-15T13:15:43;8.30;;;1.80;;
16119;SDS011;12670;53.502;10.252;2023-03-15T13:18:58;10.13;;;1.50;;
16119;SDS011;12670;53.502;10.252;2023-03-15T13:22:10;5.87;;;1.57;;
16119;SDS011;12670;53.502;10.252;2023-03-15T13:25:20;7.83;;;1.23;;
16119;SDS011;12670;53.502;10.252;2023-03-15T13:28:32;4.50;;;1.20;;
16119;SDS011;12670;53.502;10.252;2023-03-15T13:31:38;6.07;;;1.30;;
16119;SDS011;12670;53.502;10.252;2023-03-15T13:34:42;6.73;;;1.80;;
16119;SDS011;12670;53.502;10.252;2023-03-15T13:37:46;6.87;;;1.57;;
16119;SDS011;12670;53.502;10.252;2023-03-15T13:40:49;5.23;;;1.70;;
16119;SDS011;12670;53.502;10.252;2023-03-15T13:43:53;6.57;;;1.50;;
16119;SDS011;12670;53.502;10.252;2023-03-15T13:46:58;6.30;;;1.33;;
16119;SDS011;12670;53.502;10.252;2023-03-15T13:50:01;6.07;;;1.30;;
16119;SDS011;12670;53.502;10.252;2023-03-15T13:53:04;5.47;;;1.50;;
16119;SDS011;12670;53.502;10.252;2023-03-15T13:56:07;6.23;;;1.40;;
16119;SDS011;12670;53.502;10.252;2023-03-15T13:59:12;6.70;;;1.80;;
16119;SDS011;12670;53.502;10.252;2023-03-15T14:02:17;9.90;;;1.60;;
16119;SDS011;12670;53.502;10.252;2023-03-15T14:05:23;11.50;;;2.00;;
16119;SDS011;12670;53.502;10.252;2023-03-15T14:08:29;6.83;;;1.90;;
16119;SDS011;12670;53.502;10.252;2023-03-15T14:11:34;13.17;;;2.10;;
16119;SDS011;12670;53.502;10.252;2023-03-15T14:14:45;7.23;;;1.67;;
16119;SDS011;12670;53.502;10.252;2023-03-15T14:17:57;6.53;;;1.60;;
16119;SDS011;12670;53.502;10.252;2023-03-15T14:21:04;7.07;;;1.90;;
16119;SDS011;12670;53.502;10.252;2023-03-15T14:24:11;5.57;;;2.00;;
16119;SDS011;12670;53.502;10.252;2023-03-15T14:27:18;6.20;;;1.60;;
16119;SDS011;12670;53.502;10.252;2023-03-15T14:30:24;9.03;;;1.63;;
16119;SDS011;12670;53.502;10.252;2023-03-15T14:33:29;8.33;;;1.43;;
16119;SDS011;12670;53.502;10.252;2023-03-15T14:36:39;8.37;;;1.70;;
16119;SDS011;12670;53.502;10.252;2023-03-15T14:39:43;7.37;;;2.07;;
16119;SDS011;12670;53.502;10.252;2023-03-15T14:42:46;6.93;;;1.80;;
16119;SDS011;12670;53.502;10.252;2023-03-15T14:45:51;11.50;;;2.10;;
16119;SDS011;12670;53.502;10.252;2023-03-15T14:48:53;6.80;;;1.70;;
16119;SDS011;12670;53.502;10.252;2023-03-15T14:51:57;5.80;;;1.60;;
16119;SDS011;12670;53.502;10.252;2023-03-15T14:55:02;6.17;;;1.53;;
16119;SDS011;12670;53.502;10.252;2023-03-15T14:58:08;8.50;;;1.77;;
16119;SDS011;12670;53.502;10.252;2023-03-15T15:01:15;9.77;;;1.77;;
16119;SDS011;12670;53.502;10.252;2023-03-15T15:04:20;9.77;;;1.97;;
16119;SDS011;12670;53.502;10.252;2023-03-15T15:07:23;10.37;;;1.67;;
16119;SDS011;12670;53.502;10.252;2023-03-15T15:10:25;6.27;;;1.50;;
16119;SDS011;12670;53.502;10.252;2023-03-15T15:13:29;11.10;;;1.77;;
16119;SDS011;12670;53.502;10.252;2023-03-15T15:16:34;9.83;;;1.80;;
16119;SDS011;12670;53.502;10.252;2023-03-15T15:19:36;8.77;;;1.50;;
16119;SDS011;12670;53.502;10.252;2023-03-15T15:22:39;10.47;;;1.83;;
16119;SDS011;12670;53.502;10.252;2023-03-15T15:25:41;9.60;;;2.17;;
16119;SDS011;12670;53.502;10.252;2023-03-15T15:28:47;4.90;;;1.70;;
16119;SDS011;12670;53.502;10.252;2023-03-15T15:31:52;6.30;;;1.70;;
16119;SDS011;12670;53.502;10.252;2023-03-15T15:34:54;7.73;;;1.87;;
16119;SDS011;12670;53.502;10.252;2023-03-15T15:37:57;7.53;;;1.73;;
16119;SDS011;12670;53.502;10.252;2023-03-15T15:41:00;8.43;;;1.63;;
16119;SDS011;12670;53.502;10.252;2023-03-15T15:44:02;9.48;;;2.20;;
16119;SDS011;12670;53.502;10.252;2023-03-15T15:47:07;6.90;;;1.73;;
16119;SDS011;12670;53.502;10.252;2023-03-15T15:50:11;8.60;;;1.77;;
16119;SDS011;12670;53.502;10.252;2023-03-15T15:53:15;11.63;;;2.23;;
16119;SDS011;12670;53.502;10.252;2023-03-15T15:56:19;11.63;;;2.33;;
16119;SDS011;12670;53.502;10.252;2023-03-15T15:59:23;14.57;;;1.93;;
16119;SDS011;12670;53.502;10.252;2023-03-15T16:02:28;17.23;;;4.57;;
16119;SDS011;12670;53.502;10.252;2023-03-15T16:05:31;16.67;;;2.97;;
16119;SDS011;12670;53.502;10.252;2023-03-15T16:08:35;8.40;;;1.70;;
16119;SDS011;12670;53.502;10.252;2023-03-15T16:11:41;13.83;;;1.90;;
16119;SDS011;12670;53.502;10.252;2023-03-15T16:14:44;10.67;;;1.70;;
16119;SDS011;12670;53.502;10.252;2023-03-15T16:17:48;12.03;;;1.77;;
16119;SDS011;12670;53.502;10.252;2023-03-15T16:20:51;6.97;;;1.33;;
16119;SDS011;12670;53.502;10.252;2023-03-15T16:23:56;11.27;;;1.93;;
16119;SDS011;12670;53.502;10.252;2023-03-15T16:27:02;7.23;;;1.67;;
16119;SDS011;12670;53.502;10.252;2023-03-15T16:30:09;7.70;;;1.73;;
16119;SDS011;12670;53.502;10.252;2023-03-15T16:33:16;5.53;;;1.43;;
16119;SDS011;12670;53.502;10.252;2023-03-15T16:36:20;7.20;;;1.83;;
16119;SDS011;12670;53.502;10.252;2023-03-15T16:39:23;10.67;;;1.87;;
16119;SDS011;12670;53.502;10.252;2023-03-15T16:42:26;8.00;;;1.30;;
16119;SDS011;12670;53.502;10.252;2023-03-15T16:45:28;12.23;;;2.10;;
16119;SDS011;12670;53.502;10.252;2023-03-15T16:48:32;11.13;;;1.97;;
16119;SDS011;12670;53.502;10.252;2023-03-15T16:51:35;6.30;;;1.57;;
16119;SDS011;12670;53.502;10.252;2023-03-15T16:54:40;9.57;;;2.00;;
16119;SDS011;12670;53.502;10.252;2023-03-15T16:57:44;7.57;;;1.70;;
16119;SDS011;12670;53.502;10.252;2023-03-15T17:00:46;11.93;;;1.73;;
16119;SDS011;12670;53.502;10.252;2023-03-15T17:03:50;7.40;;;2.13;;
16119;SDS011;12670;53.502;10.252;2023-03-15T17:06:53;11.43;;;1.97;;
16119;SDS011;12670;53.502;10.252;2023-03-15T17:09:56;9.93;;;1.80;;
16119;SDS011;12670;53.502;10.252;2023-03-15T17:12:59;9.70;;;1.87;;
16119;SDS011;12670;53.502;10.252;2023-03-15T17:16:03;13.87;;;2.33;;
16119;SDS011;12670;53.502;10.252;2023-03-15T17:19:10;11.23;;;1.73;;
16119;SDS011;12670;53.502;10.252;2023-03-15T17:22:14;11.80;;;2.27;;
16119;SDS011;12670;53.502;10.252;2023-03-15T17:25:18;10.90;;;2.10;;
16119;SDS011;12670;53.502;10.252;2023-03-15T17:28:21;8.60;;;1.90;;
16119;SDS011;12670;53.502;10.252;2023-03-15T17:31:24;15.50;;;1.80;;
16119;SDS011;12670;53.502;10.252;2023-03-15T17:34:28;10.47;;;1.70;;
16119;SDS011;12670;53.502;10.252;2023-03-15T17:37:34;14.03;;;2.30;;
16119;SDS011;12670;53.502;10.252;2023-03-15T17:40:39;9.40;;;1.70;;
16119;SDS011;12670;53.502;10.252;2023-03-15T17:43:42;8.83;;;2.07;;
16119;SDS011;12670;53.502;10.252;2023-03-15T17:46:45;11.67;;;2.00;;
16119;SDS011;12670;53.502;10.252;2023-03-15T17:49:49;10.07;;;2.10;;
16119;SDS011;12670;53.502;10.252;2023-03-15T17:52:52;11.53;;;2.20;;
16119;SDS011;12670;53.502;10.252;2023-03-15T17:55:57;10.87;;;2.60;;
16119;SDS011;12670;53.502;10.252;2023-03-15T17:58:59;13.10;;;2.67;;
16119;SDS011;12670;53.502;10.252;2023-03-15T18:02:02;11.10;;;2.23;;
16119;SDS011;12670;53.502;10.252;2023-03-15T18:05:10;7.77;;;2.10;;
16119;SDS011;12670;53.502;10.252;2023-03-15T18:08:15;10.93;;;2.37;;
16119;SDS011;12670;53.502;10.252;2023-03-15T18:11:21;7.70;;;2.10;;
16119;SDS011;12670;53.502;10.252;2023-03-15T18:14:26;9.80;;;2.43;;
16119;SDS011;12670;53.502;10.252;2023-03-15T18:17:30;9.87;;;2.30;;
16119;SDS011;12670;53.502;10.252;2023-03-15T18:20:34;10.87;;;2.23;;
16119;SDS011;12670;53.502;10.252;2023-03-15T18:23:37;12.77;;;3.50;;